Al Hoceima, Morocco
Current Conditions -  °F | °C
As of 1:00 PM on Friday 24 Oct 2014 (Local Time) from GMTA Reporting Station
Few Clouds Few Clouds  
Wind Chill: 22°   Ceiling: Unl
Heat Index: 22°   Visibility: 6mi
Dew Point: 19°   Wind: 7mph
Humidity: 83%   Direction: 360°N
Pressure: 30.03"   Gusts: NA
Location:  35.26°N, 3.94°W
Report Text: GMTA 241200Z 36006KT 9999 FEW020 22/19 Q1017 NOSIG
Loading
Personal Weather Stations






























Interactive Weather Map
Tropical Storm Tracking
New forecast layout! Learn more

10-Day Weather Forecast

Advertisements
Track Severe Weather on mobile